Time;durP1;ratioP1;P1;durP2;ratioP2;P2;SDS_P1;SDS_P2;PMS_P1;PMS_P2;Temp;Humidity;BMP_temperature;BMP_pressure;BME280_temperature;BME280_humidity;BME280_pressure;Samples;Min_cycle;Max_cycle;Signal;HPM_P1;HPM_P2
2023/07/18 00:02:46;;;;;;;6.27;5.67;;;;;23.30;97320.00;;;;4990760;28;20199;-70
2023/07/18 00:05:36;;;;;;;9.67;6.67;;;;;23.10;97323.00;;;;4989583;28;20214;-70
2023/07/18 00:08:26;;;;;;;10.40;6.77;;;;;22.90;97322.00;;;;4990592;28;20711;-69
2023/07/18 00:11:15;;;;;;;9.07;5.63;;;;;22.70;97309.00;;;;4989834;28;20207;-70
2023/07/18 00:14:04;;;;;;;7.87;6.47;;;;;22.90;97309.00;;;;4989352;28;20234;-70
2023/07/18 00:16:53;;;;;;;11.87;6.80;;;;;22.50;97307.00;;;;4988368;28;20235;-70
2023/07/18 00:19:44;;;;;;;7.10;6.30;;;;;22.70;97300.00;;;;4988915;28;20210;-70
2023/07/18 00:22:33;;;;;;;7.90;6.10;;;;;23.10;97297.00;;;;4988370;28;20967;-70
2023/07/18 00:25:22;;;;;;;6.47;5.80;;;;;23.30;97297.00;;;;4989662;28;20202;-70
2023/07/18 00:28:11;;;;;;;6.30;5.63;;;;;23.20;97300.00;;;;4989608;28;20222;-70
2023/07/18 00:31:00;;;;;;;7.77;6.43;;;;;23.10;97300.00;;;;4987546;28;20680;-70
2023/07/18 00:33:49;;;;;;;9.77;6.20;;;;;22.90;97298.00;;;;4987923;28;20218;-70
2023/07/18 00:36:40;;;;;;;6.83;6.20;;;;;22.90;97294.00;;;;4988921;28;20731;-70
2023/07/18 00:39:29;;;;;;;6.73;6.03;;;;;22.60;97281.00;;;;4986910;28;20875;-70
2023/07/18 00:42:18;;;;;;;7.37;6.23;;;;;22.50;97288.00;;;;4986643;28;20664;-70
2023/07/18 00:45:08;;;;;;;8.77;6.03;;;;;22.50;97286.00;;;;4989742;28;20206;-70
2023/07/18 00:47:57;;;;;;;6.67;6.07;;;;;22.90;97288.00;;;;4989203;28;20222;-70
2023/07/18 00:50:46;;;;;;;6.70;5.33;;;;;23.00;97292.00;;;;4988628;28;20213;-71
2023/07/18 00:53:37;;;;;;;8.67;6.73;;;;;22.90;97285.00;;;;4988372;28;20635;-70
2023/07/18 00:56:26;;;;;;;9.87;6.13;;;;;23.00;97274.00;;;;4989992;28;20222;-70
2023/07/18 00:59:17;;;;;;;7.93;7.13;;;;;22.90;97246.00;;;;4990088;28;20206;-70
2023/07/18 01:02:07;;;;;;;6.73;5.77;;;;;23.00;97243.00;;;;4988635;28;20210;-70
2023/07/18 01:04:56;;;;;;;6.33;5.83;;;;;22.90;97241.00;;;;4987639;28;20738;-70
2023/07/18 01:07:45;;;;;;;11.47;6.00;;;;;22.60;97240.00;;;;4989601;28;20219;-70
2023/07/18 01:10:38;;;;;;;7.13;5.20;;;;;22.80;97256.00;;;;4989864;28;20218;-70
2023/07/18 01:13:27;;;;;;;7.57;6.27;;;;;22.50;97260.00;;;;4988078;28;20231;-70
2023/07/18 01:16:16;;;;;;;9.30;6.73;;;;;22.40;97261.00;;;;4989477;28;20211;-70
2023/07/18 01:19:05;;;;;;;6.67;5.83;;;;;22.60;97257.00;;;;4989468;28;20269;-70
2023/07/18 01:21:56;;;;;;;7.10;6.40;;;;;22.70;97262.00;;;;4986147;28;20207;-70
2023/07/18 01:24:45;;;;;;;7.20;6.50;;;;;22.50;97254.00;;;;4989261;28;20203;-70
2023/07/18 01:27:37;;;;;;;6.77;6.13;;;;;22.70;97255.00;;;;4987773;28;20711;-70
2023/07/18 01:30:27;;;;;;;9.47;5.40;;;;;22.70;97257.00;;;;4986363;28;20218;-70
2023/07/18 01:33:16;;;;;;;6.30;5.30;;;;;22.90;97258.00;;;;4988551;28;20596;-70
2023/07/18 01:36:06;;;;;;;7.10;5.43;;;;;22.90;97260.00;;;;4987398;28;20206;-70
2023/07/18 01:38:57;;;;;;;5.80;5.30;;;;;22.90;97262.00;;;;4991423;28;20198;-70
2023/07/18 01:41:47;;;;;;;6.67;5.83;;;;;22.90;97270.00;;;;4990746;28;20207;-70
2023/07/18 01:44:36;;;;;;;7.70;5.47;;;;;22.60;97273.00;;;;4993043;28;20195;-70
2023/07/18 01:47:25;;;;;;;7.70;5.97;;;;;22.60;97273.00;;;;4993360;28;20613;-70
2023/07/18 01:50:14;;;;;;;7.37;5.83;;;;;22.80;97270.00;;;;4992646;28;20203;-70
2023/07/18 01:53:03;;;;;;;7.73;5.87;;;;;22.80;97271.00;;;;4990527;28;20203;-70
2023/07/18 01:55:54;;;;;;;6.13;5.20;;;;;22.40;97270.00;;;;4993376;28;20210;-70
2023/07/18 01:58:44;;;;;;;5.83;5.07;;;;;22.40;97276.00;;;;4991230;28;20202;-70
2023/07/18 02:01:33;;;;;;;9.07;6.10;;;;;22.70;97275.00;;;;4990933;28;20207;-70
2023/07/18 02:04:22;;;;;;;6.47;5.83;;;;;22.60;97275.00;;;;4989381;28;20199;-70
2023/07/18 02:07:11;;;;;;;8.43;6.03;;;;;22.30;97279.00;;;;4991955;28;20600;-70
2023/07/18 02:10:01;;;;;;;9.27;6.43;;;;;22.30;97276.00;;;;4992324;28;20245;-70
2023/07/18 02:12:52;;;;;;;7.70;5.83;;;;;22.50;97269.00;;;;4989251;28;20217;-70
2023/07/18 02:15:41;;;;;;;8.83;6.37;;;;;22.70;97269.00;;;;4991878;28;20678;-70
2023/07/18 02:18:30;;;;;;;9.60;5.83;;;;;22.30;97256.00;;;;4992661;28;20214;-70
2023/07/18 02:21:19;;;;;;;7.93;6.37;;;;;22.00;97259.00;;;;4991497;28;20211;-70
2023/07/18 02:24:08;;;;;;;7.93;5.30;;;;;22.20;97249.00;;;;4991790;28;20207;-70
2023/07/18 02:26:58;;;;;;;9.50;6.17;;;;;22.30;97266.00;;;;4992341;28;20227;-70
2023/07/18 02:29:49;;;;;;;7.57;6.20;;;;;22.40;97261.00;;;;4993009;28;20277;-70
2023/07/18 02:32:38;;;;;;;10.13;5.13;;;;;22.60;97261.00;;;;4990650;28;20205;-70
2023/07/18 02:35:27;;;;;;;7.27;5.77;;;;;22.80;97261.00;;;;4988502;28;20720;-70
2023/07/18 02:38:16;;;;;;;7.00;5.83;;;;;22.80;97266.00;;;;5024646;23;20730;-89
2023/07/18 02:41:06;;;;;;;9.63;6.57;;;;;22.60;97267.00;;;;5017289;28;20241;-90
2023/07/18 02:43:55;;;;;;;7.87;6.20;;;;;22.20;97284.00;;;;5004918;28;20209;-89
2023/07/18 02:46:45;;;;;;;6.80;6.17;;;;;22.20;97287.00;;;;4995587;28;20701;-89
2023/07/18 02:49:35;;;;;;;6.90;6.17;;;;;22.20;97292.00;;;;4993688;28;20222;-89
2023/07/18 02:52:24;;;;;;;7.57;5.93;;;;;22.00;97280.00;;;;4997919;28;20340;-89
2023/07/18 02:55:13;;;;;;;7.33;6.63;;;;;22.30;97298.00;;;;4999742;28;20692;-89
2023/07/18 02:58:03;;;;;;;6.20;5.60;;;;;22.10;97287.00;;;;5002656;28;20206;-89
2023/07/18 03:00:52;;;;;;;7.70;6.13;;;;;22.20;97292.00;;;;4997920;28;20198;-92
2023/07/18 03:03:43;;;;;;;7.13;6.37;;;;;22.40;97278.00;;;;4996396;28;20207;-89
2023/07/18 03:06:33;;;;;;;6.63;5.77;;;;;22.50;97272.00;;;;4991619;28;20198;-90
2023/07/18 03:09:22;;;;;;;6.60;5.97;;;;;22.60;97280.00;;;;4991332;28;20203;-89
2023/07/18 03:12:11;;;;;;;6.73;4.77;;;;;22.50;97273.00;;;;4997357;28;20223;-89
2023/07/18 03:15:00;;;;;;;8.20;5.77;;;;;22.10;97275.00;;;;4999946;28;20234;-90
2023/07/18 03:17:49;;;;;;;7.37;5.80;;;;;22.00;97283.00;;;;4993901;28;20207;-89
2023/07/18 03:20:41;;;;;;;6.93;6.33;;;;;22.10;97281.00;;;;4993696;28;20260;-89
2023/07/18 03:23:31;;;;;;;6.60;5.20;;;;;22.00;97291.00;;;;4991330;28;20587;-89
2023/07/18 03:26:20;;;;;;;9.37;6.30;;;;;21.90;97293.00;;;;4994106;28;20222;-89
2023/07/18 03:29:09;;;;;;;6.27;5.67;;;;;22.30;97294.00;;;;4993818;28;20219;-90
2023/07/18 03:32:00;;;;;;;7.20;5.87;;;;;22.40;97290.00;;;;4992964;28;20222;-90
2023/07/18 03:34:50;;;;;;;7.47;6.00;;;;;22.50;97292.00;;;;4992412;28;20219;-89
2023/07/18 03:37:40;;;;;;;8.63;6.77;;;;;22.50;97294.00;;;;4986829;28;20225;-89
2023/07/18 03:40:29;;;;;;;6.87;5.57;;;;;22.30;97299.00;;;;4989263;28;20203;-89
2023/07/18 03:43:19;;;;;;;6.70;6.10;;;;;22.40;97299.00;;;;4992178;28;20226;-90
2023/07/18 03:46:08;;;;;;;10.63;5.80;;;;;22.10;97298.00;;;;5005043;28;20216;-89
2023/07/18 03:48:57;;;;;;;8.17;6.87;;;;;22.10;97306.00;;;;4999533;28;20206;-90
2023/07/18 03:51:46;;;;;;;10.33;7.30;;;;;22.20;97304.00;;;;4995244;28;20226;-89
2023/07/18 03:54:37;;;;;;;6.23;5.63;;;;;22.40;97311.00;;;;4990749;28;20227;-89
2023/07/18 03:57:27;;;;;;;6.23;5.53;;;;;22.40;97305.00;;;;4990815;28;20198;-90
2023/07/18 04:00:18;;;;;;;12.93;5.50;;;;;22.40;97314.00;;;;5003106;28;20211;-89
2023/07/18 04:03:07;;;;;;;6.00;5.30;;;;;22.30;97304.00;;;;4995483;28;20701;-90
2023/07/18 04:05:57;;;;;;;6.60;5.90;;;;;22.10;97298.00;;;;5000771;28;20446;-90
2023/07/18 04:08:46;;;;;;;7.73;6.13;;;;;22.50;97301.00;;;;5004801;28;20247;-89
2023/07/18 04:11:37;;;;;;;6.10;5.40;;;;;22.50;97302.00;;;;4997251;28;20231;-90
2023/07/18 04:14:26;;;;;;;6.73;6.13;;;;;22.40;97300.00;;;;4997727;28;20692;-89
2023/07/18 04:17:16;;;;;;;7.13;6.10;;;;;22.00;97307.00;;;;4999816;28;20214;-91
2023/07/18 04:20:06;;;;;;;9.90;6.30;;;;;22.00;97307.00;;;;4999017;28;20210;-90
2023/07/18 04:22:57;;;;;;;7.60;6.07;;;;;22.50;97301.00;;;;4988937;28;20222;-90
2023/07/18 04:25:58;;;;;;;7.07;6.43;;;;;22.70;97309.00;;;;4995523;28;20194;-89
2023/07/18 04:28:49;;;;;;;6.27;5.67;;;;;22.50;97310.00;;;;4995303;28;20205;-90
2023/07/18 04:31:38;;;;;;;6.20;5.60;;;;;22.60;97306.00;;;;4997535;28;20226;-89
2023/07/18 04:34:27;;;;;;;7.50;6.57;;;;;22.60;97306.00;;;;4993059;28;20203;-90
2023/07/18 04:37:16;;;;;;;6.90;6.10;;;;;22.50;97309.00;;;;4993721;28;20218;-90
2023/07/18 04:40:08;;;;;;;6.80;6.17;;;;;22.60;97309.00;;;;4990074;28;20722;-90
2023/07/18 04:42:57;;;;;;;6.13;5.63;;;;;22.60;97309.00;;;;4987621;28;20222;-90
2023/07/18 04:45:48;;;;;;;7.03;6.37;;;;;22.60;97305.00;;;;4995436;28;20689;-90
2023/07/18 04:48:38;;;;;;;7.03;5.93;;;;;23.00;97309.00;;;;4993490;28;20198;-90
2023/07/18 04:51:27;;;;;;;7.07;6.47;;;;;23.30;97316.00;;;;4983992;28;20222;-90
2023/07/18 04:54:16;;;;;;;9.63;6.50;;;;;23.40;97316.00;;;;4991685;28;20202;-90
2023/07/18 04:57:06;;;;;;;6.67;5.77;;;;;23.50;97322.00;;;;4989206;28;20211;-90
2023/07/18 04:59:55;;;;;;;5.93;5.33;;;;;23.70;97317.00;;;;4990173;28;20205;-91
2023/07/18 05:02:45;;;;;;;8.27;5.63;;;;;23.90;97326.00;;;;4992100;28;20254;-91
2023/07/18 05:05:34;;;;;;;6.77;6.07;;;;;24.10;97324.00;;;;4994020;28;20242;-90
2023/07/18 05:08:24;;;;;;;6.63;5.77;;;;;23.90;97323.00;;;;5004706;28;20496;-92
2023/07/18 05:11:13;;;;;;;7.90;6.70;;;;;24.10;97330.00;;;;5004521;28;20731;-90
2023/07/18 05:14:02;;;;;;;7.07;6.43;;;;;24.10;97332.00;;;;4991573;28;20468;-91
2023/07/18 05:16:51;;;;;;;8.90;5.93;;;;;23.90;97319.00;;;;4992130;28;20287;-91
2023/07/18 05:19:42;;;;;;;9.70;7.00;;;;;24.00;97326.00;;;;4990986;28;20213;-91
2023/07/18 05:22:31;;;;;;;6.63;6.03;;;;;23.90;97326.00;;;;4991340;28;20229;-90
2023/07/18 05:25:20;;;;;;;7.60;5.83;;;;;23.90;97323.00;;;;4988061;28;20337;-90
2023/07/18 05:28:09;;;;;;;7.17;5.87;;;;;24.00;97317.00;;;;4992590;28;20587;-89
2023/07/18 05:30:58;;;;;;;11.80;7.17;;;;;24.10;97330.00;;;;4992096;28;20297;-90
2023/07/18 05:33:47;;;;;;;5.63;5.13;;;;;24.10;97329.00;;;;4987812;28;20199;-89
2023/07/18 05:36:38;;;;;;;10.30;5.57;;;;;24.30;97327.00;;;;4984737;28;20223;-89
2023/07/18 05:39:27;;;;;;;7.93;5.73;;;;;24.30;97323.00;;;;4988821;28;20202;-88
2023/07/18 05:42:17;;;;;;;6.93;6.17;;;;;24.40;97327.00;;;;4986835;28;20222;-89
2023/07/18 05:45:07;;;;;;;6.17;5.50;;;;;24.50;97321.00;;;;4988413;28;20693;-89
2023/07/18 05:47:57;;;;;;;6.37;5.10;;;;;24.80;97327.00;;;;4988570;28;20281;-88
2023/07/18 05:50:47;;;;;;;6.47;5.87;;;;;25.00;97327.00;;;;4988384;28;20701;-89
2023/07/18 05:53:37;;;;;;;6.17;5.57;;;;;25.10;97335.00;;;;4988711;28;20214;-89
2023/07/18 05:56:26;;;;;;;8.73;7.13;;;;;25.10;97335.00;;;;4992169;28;20233;-88
2023/07/18 05:59:15;;;;;;;7.90;5.83;;;;;25.20;97338.00;;;;4988918;28;20233;-89
2023/07/18 06:02:05;;;;;;;7.00;5.90;;;;;25.40;97329.00;;;;4986233;28;20226;-89
2023/07/18 06:04:55;;;;;;;8.17;5.17;;;;;25.50;97332.00;;;;4987921;28;20207;-89
2023/07/18 06:07:44;;;;;;;7.27;6.20;;;;;25.50;97330.00;;;;4987615;28;20226;-89
2023/07/18 06:10:35;;;;;;;6.63;5.90;;;;;25.50;97332.00;;;;4988313;28;20210;-90
2023/07/18 06:13:24;;;;;;;6.93;5.60;;;;;25.70;97331.00;;;;4986835;28;20207;-89
2023/07/18 06:16:13;;;;;;;6.10;5.40;;;;;25.70;97330.00;;;;4986805;28;20230;-89
2023/07/18 06:19:02;;;;;;;6.07;5.47;;;;;25.80;97327.00;;;;4992617;28;20195;-89
2023/07/18 06:21:52;;;;;;;5.87;5.27;;;;;25.90;97326.00;;;;4987743;28;20627;-90
2023/07/18 06:24:44;;;;;;;16.90;7.03;;;;;26.00;97330.00;;;;4990278;28;20232;-89
2023/07/18 06:27:35;;;;;;;10.67;6.93;;;;;26.00;97332.00;;;;4986120;28;20247;-89
2023/07/18 06:30:24;;;;;;;8.10;5.97;;;;;25.50;97334.00;;;;4989029;28;20203;-89
2023/07/18 06:33:13;;;;;;;6.33;5.67;;;;;25.40;97324.00;;;;4989957;28;20207;-89
2023/07/18 06:36:02;;;;;;;7.47;5.37;;;;;25.80;97328.00;;;;4987065;28;20692;-88
2023/07/18 06:38:51;;;;;;;7.43;5.90;;;;;25.80;97330.00;;;;4986654;28;20206;-89
2023/07/18 06:41:40;;;;;;;6.20;5.27;;;;;25.90;97330.00;;;;4989619;28;20250;-90
2023/07/18 06:44:31;;;;;;;7.07;6.37;;;;;25.50;97339.00;;;;4991656;28;20202;-89
2023/07/18 06:47:20;;;;;;;5.60;5.10;;;;;25.80;97328.00;;;;4990792;28;20195;-88
2023/07/18 06:50:11;;;;;;;7.53;6.00;;;;;26.10;97331.00;;;;4990864;28;20211;-90
2023/07/18 06:53:00;;;;;;;6.47;5.37;;;;;26.10;97336.00;;;;4990271;28;20602;-89
2023/07/18 06:55:50;;;;;;;5.70;5.20;;;;;26.10;97335.00;;;;4991503;28;20206;-88
2023/07/18 06:58:39;;;;;;;6.53;5.20;;;;;26.20;97335.00;;;;4989674;28;20203;-88
2023/07/18 07:01:31;;;;;;;5.33;4.93;;;;;26.20;97330.00;;;;4987159;28;20226;-89
2023/07/18 07:04:21;;;;;;;7.23;5.60;;;;;26.10;97323.00;;;;4989824;28;20228;-90
2023/07/18 07:07:10;;;;;;;6.30;5.33;;;;;26.60;97328.00;;;;4992659;28;20261;-89
2023/07/18 07:10:00;;;;;;;5.70;5.20;;;;;27.10;97316.00;;;;4990207;28;20254;-89
2023/07/18 07:12:49;;;;;;;6.37;4.93;;;;;27.50;97313.00;;;;4990886;28;20237;-89
2023/07/18 07:15:38;;;;;;;6.27;5.70;;;;;26.90;97319.00;;;;4990946;28;20566;-88
2023/07/18 07:18:29;;;;;;;7.47;5.87;;;;;27.40;97313.00;;;;4990534;28;20203;-89
2023/07/18 07:21:18;;;;;;;7.27;5.70;;;;;27.80;97317.00;;;;4990939;28;20229;-88
2023/07/18 07:24:08;;;;;;;6.30;5.00;;;;;28.20;97311.00;;;;4990459;28;20596;-87
2023/07/18 07:26:58;;;;;;;5.03;4.53;;;;;28.20;97314.00;;;;4990886;28;20207;-89
2023/07/18 07:29:47;;;;;;;8.87;5.47;;;;;28.60;97319.00;;;;4988650;28;20221;-88
2023/07/18 07:32:39;;;;;;;6.33;4.87;;;;;28.70;97321.00;;;;4990344;28;20754;-87
2023/07/18 07:35:29;;;;;;;7.03;5.40;;;;;29.00;97328.00;;;;4992052;28;20211;-87
2023/07/18 07:38:19;;;;;;;6.23;5.23;;;;;29.10;97330.00;;;;4990470;28;20212;-93
2023/07/18 07:41:08;;;;;;;5.57;5.03;;;;;29.10;97333.00;;;;4993250;28;20227;-86
2023/07/18 07:44:04;;;;;;;6.80;4.87;;;;;29.30;97325.00;;;;4991524;28;20211;-85
2023/07/18 07:46:55;;;;;;;5.67;4.80;;;;;29.30;97327.00;;;;4992309;28;20211;-86
2023/07/18 07:49:44;;;;;;;5.30;4.77;;;;;29.30;97328.00;;;;4995016;28;20214;-85
2023/07/18 07:52:34;;;;;;;5.13;4.63;;;;;29.40;97328.00;;;;4996131;28;20235;-86
2023/07/18 07:55:23;;;;;;;5.23;4.57;;;;;28.70;97316.00;;;;4992542;28;20201;-86
2023/07/18 07:58:13;;;;;;;6.33;5.23;;;;;29.00;97314.00;;;;4994338;28;20240;-85
2023/07/18 08:01:02;;;;;;;6.97;4.87;;;;;29.40;97319.00;;;;4993339;28;20224;-87
2023/07/18 08:03:51;;;;;;;5.50;4.90;;;;;29.60;97323.00;;;;4992250;28;20593;-86
2023/07/18 08:06:40;;;;;;;6.63;5.97;;;;;29.10;97308.00;;;;4996967;28;20198;-86
2023/07/18 08:09:31;;;;;;;6.07;4.70;;;;;29.40;97321.00;;;;4993413;28;20209;-86
2023/07/18 08:12:20;;;;;;;6.67;5.13;;;;;29.70;97314.00;;;;4993888;28;20234;-86
2023/07/18 08:15:10;;;;;;;5.57;5.07;;;;;30.00;97315.00;;;;4997103;28;20211;-86
2023/07/18 08:18:00;;;;;;;7.07;5.00;;;;;30.30;97318.00;;;;4994896;28;20274;-85
2023/07/18 08:20:49;;;;;;;6.33;5.73;;;;;30.40;97313.00;;;;4994320;28;20209;-87
2023/07/18 08:23:38;;;;;;;9.03;5.73;;;;;30.60;97314.00;;;;4990781;28;20702;-86
2023/07/18 08:26:28;;;;;;;8.73;5.83;;;;;30.40;97321.00;;;;4994991;28;20218;-87
2023/07/18 08:29:17;;;;;;;6.27;5.67;;;;;30.50;97313.00;;;;4995923;28;20210;-85
2023/07/18 08:32:07;;;;;;;7.43;5.73;;;;;30.50;97315.00;;;;4989351;28;20241;-85
2023/07/18 08:34:56;;;;;;;7.97;5.60;;;;;29.90;97309.00;;;;4989539;28;20272;-86
2023/07/18 08:37:46;;;;;;;6.13;4.93;;;;;30.90;97309.00;;;;4991587;28;20244;-89
2023/07/18 08:40:35;;;;;;;5.97;4.83;;;;;31.00;97312.00;;;;4996063;28;20944;-86
2023/07/18 08:43:26;;;;;;;10.03;5.13;;;;;31.00;97303.00;;;;4993768;28;20205;-86
2023/07/18 08:46:15;;;;;;;8.60;6.03;;;;;31.20;97310.00;;;;4994013;28;20212;-87
2023/07/18 08:49:06;;;;;;;6.63;5.50;;;;;31.70;97310.00;;;;4992940;28;20206;-87
2023/07/18 08:51:55;;;;;;;5.30;4.80;;;;;32.20;97305.00;;;;4991187;28;20222;-85
2023/07/18 08:54:47;;;;;;;5.88;5.30;;;;;32.10;97300.00;;;;4993973;28;20209;-86
2023/07/18 08:57:39;;;;;;;5.93;5.23;;;;;32.30;97310.00;;;;4979621;28;20232;-87
2023/07/18 09:00:30;;;;;;;9.20;5.35;;;;;32.80;97297.00;;;;4998973;28;20216;-89
2023/07/18 09:03:19;;;;;;;4.95;4.55;;;;;32.50;97313.00;;;;4993808;28;20669;-88
2023/07/18 09:06:18;;;;;;;8.88;5.53;;;;;32.30;97298.00;;;;4989162;28;20206;-88
2023/07/18 09:09:16;;;;;;;5.88;4.82;;;;;32.60;97293.00;;;;4989486;28;20209;-88
2023/07/18 09:12:06;;;;;;;8.88;4.90;;;;;32.20;97308.00;;;;4998360;28;20235;-88
2023/07/18 09:14:57;;;;;;;6.63;5.35;;;;;31.90;97308.00;;;;4992751;28;20204;-88
2023/07/18 09:17:55;;;;;;;9.20;5.40;;;;;31.80;97287.00;;;;4988638;28;20234;-88
2023/07/18 09:20:44;;;;;;;5.97;5.25;;;;;31.90;97279.00;;;;4988024;28;20297;-87
2023/07/18 09:23:40;;;;;;;9.32;5.60;;;;;32.50;97278.00;;;;4986393;28;20209;-87
2023/07/18 09:26:30;;;;;;;6.93;6.25;;;;;31.90;97280.00;;;;4986337;28;20262;-87
2023/07/18 09:29:19;;;;;;;6.35;4.93;;;;;32.80;97280.00;;;;4986723;28;20205;-88
2023/07/18 09:32:08;;;;;;;5.40;4.90;;;;;32.90;97281.00;;;;4991932;28;20224;-87
2023/07/18 09:35:00;;;;;;;9.05;6.07;;;;;33.40;97293.00;;;;4982928;28;20216;-88
2023/07/18 09:37:50;;;;;;;6.95;5.57;;;;;33.40;97267.00;;;;4991070;28;20228;-88
2023/07/18 09:40:40;;;;;;;9.73;4.95;;;;;34.00;97256.00;;;;4986098;28;20271;-87
2023/07/18 09:43:30;;;;;;;6.72;4.88;;;31.10;99.90;33.10;97261.00;;;;4987256;28;20200;-89
2023/07/18 09:46:19;;;;;;;5.25;4.80;;;31.00;99.90;31.80;97276.00;;;;4999134;28;20535;-87
2023/07/18 09:49:09;;;;;;;6.22;5.47;;;30.60;99.90;33.00;97277.00;;;;4993620;28;20210;-87
2023/07/18 09:52:07;;;;;;;5.88;4.70;;;30.50;99.90;32.20;97284.00;;;;4991634;28;20232;-88
2023/07/18 09:54:57;;;;;;;6.10;4.65;;;30.20;99.90;32.00;97272.00;;;;4986555;28;20202;-88
2023/07/18 09:57:47;;;;;;;5.07;4.63;;;30.00;99.90;31.80;97266.00;;;;4986408;28;20222;-88
2023/07/18 10:00:37;;;;;;;4.90;4.40;;;29.70;99.90;31.90;97263.00;;;;4989099;28;20276;-88
2023/07/18 10:03:31;;;;;;;5.85;5.13;;;29.60;99.90;31.20;97272.00;;;;4988224;28;20211;-86
2023/07/18 10:06:21;;;;;;;5.45;4.45;;;29.40;99.90;31.10;97263.00;;;;4984115;28;20212;-88
2023/07/18 10:09:11;;;;;;;5.07;4.50;;;29.20;99.90;31.70;97259.00;;;;4992727;28;20209;-87
2023/07/18 10:12:18;;;;;;;7.13;6.15;;;29.20;99.90;32.00;97266.00;;;;4992193;28;20247;-88
2023/07/18 10:15:09;;;;;;;6.72;4.78;;;29.20;99.90;32.40;97247.00;;;;4996658;28;20208;-89
2023/07/18 10:18:19;;;;;;;6.05;4.65;;;29.40;99.90;32.80;97217.00;;;;4995370;28;20596;-87
2023/07/18 10:21:08;;;;;;;4.88;4.35;;;29.80;99.90;32.10;97252.00;;;;4992043;28;20223;-90
2023/07/18 10:23:57;;;;;;;5.95;4.78;;;29.80;99.90;32.60;97241.00;;;;4991974;28;20635;-89
2023/07/18 10:26:53;;;;;;;5.00;4.05;;;29.80;99.90;32.80;97213.00;;;;4992241;28;20206;-89
2023/07/18 10:29:43;;;;;;;4.88;4.40;;;29.70;99.90;34.00;97212.00;;;;4990802;28;20307;-88
2023/07/18 10:32:35;;;;;;;6.32;5.07;;;30.40;99.90;34.20;97208.00;;;;5001026;28;20229;-87
2023/07/18 10:35:27;;;;;;;5.85;4.28;;;30.80;99.90;34.00;97238.00;;;;4992056;28;20206;-88
2023/07/18 10:38:15;;;;;;;11.20;5.75;;;31.20;99.90;33.20;97204.00;;;;4991208;28;20232;-90
2023/07/18 10:41:04;;;;;;;5.38;4.10;;;31.00;99.90;34.10;97201.00;;;;4988934;28;20202;-89
2023/07/18 10:43:54;;;;;;;4.90;4.47;;;31.10;99.90;35.10;97186.00;;;;4991551;28;20591;-89
2023/07/18 10:46:43;;;;;;;7.22;5.15;;;31.60;99.90;34.10;97195.00;;;;4992736;28;20203;-88
2023/07/18 10:49:32;;;;;;;4.80;4.40;;;31.90;99.90;33.10;97224.00;;;;4995190;28;20216;-87
2023/07/18 10:52:22;;;;;;;7.35;6.05;;;31.60;99.90;34.10;97210.00;;;;4998894;28;20215;-89
2023/07/18 10:55:12;;;;;;;5.63;5.13;;;31.50;99.90;34.10;97173.00;;;;4995869;28;20201;-89
2023/07/18 10:58:01;;;;;;;5.18;4.68;;;31.50;99.90;34.00;97194.00;;;;4990763;28;20224;-87
2023/07/18 11:00:52;;;;;;;5.22;4.75;;;31.70;99.90;32.50;97166.00;;;;4998205;28;20216;-87
2023/07/18 11:03:45;;;;;;;5.38;4.80;;;31.30;99.90;34.10;97191.00;;;;5016733;28;20225;-87
2023/07/18 11:06:34;;;;;;;5.13;4.45;;;31.30;99.90;34.40;97178.00;;;;5015467;28;20190;-88
2023/07/18 11:09:23;;;;;;;5.55;4.68;;;31.50;99.90;33.50;97204.00;;;;5014555;28;20212;-87
2023/07/18 11:12:19;;;;;;;5.40;4.93;;;;;32.60;97161.00;;;;5016115;28;20241;-87
2023/07/18 11:15:11;;;;;;;7.22;5.40;;;;;33.00;97193.00;;;;5018120;28;20196;-85
2023/07/18 11:18:04;;;;;;;8.63;5.38;;;;;31.70;97183.00;;;;5017586;28;20192;-86
2023/07/18 11:20:54;;;;;;;6.78;5.57;;;;;33.20;97138.00;;;;5006465;28;20199;-86
2023/07/18 11:23:43;;;;;;;6.25;5.13;;;;;34.70;97134.00;;;;4990678;28;20206;-86
2023/07/18 11:26:32;;;;;;;5.28;4.63;;;;;35.10;97129.00;;;;4991195;28;20205;-87
2023/07/18 11:29:27;;;;;;;5.82;4.88;;;;;33.50;97120.00;;;;4985600;28;20216;-87
2023/07/18 11:32:29;;;;;;;5.28;4.65;;;;;33.80;97122.00;;;;4997998;28;20231;-86
2023/07/18 11:35:23;;;;;;;6.05;4.50;;;;;35.10;97162.00;;;;4991592;28;20686;-87
2023/07/18 11:38:13;;;;;;;5.15;4.60;;;;;32.60;97166.00;;;;4991769;28;20218;-88
2023/07/18 11:41:02;;;;;;;6.38;4.30;;;;;33.20;97170.00;;;;4992111;28;20202;-87
2023/07/18 11:43:54;;;;;;;7.75;4.93;;;;;33.50;97163.00;;;;4991999;28;20267;-88
2023/07/18 11:46:45;;;;;;;11.63;5.20;;;;;33.50;97136.00;;;;4995292;28;20214;-86
2023/07/18 11:49:35;;;;;;;7.38;5.05;;;;;33.90;97154.00;;;;4996327;28;20587;-87
2023/07/18 11:52:28;;;;;;;5.25;4.75;;;;;35.50;97091.00;;;;4994894;28;20243;-87
2023/07/18 11:55:20;;;;;;;6.15;5.65;;;32.30;99.70;36.90;97095.00;;;;5000987;28;20221;-89
2023/07/18 11:58:10;;;;;;;7.18;5.55;;;32.50;99.80;37.30;97090.00;;;;4991097;28;20206;-88
2023/07/18 12:01:00;;;;;;;6.38;5.80;;;33.20;98.60;37.10;97093.00;;;;4988386;28;20198;-88
2023/07/18 12:03:51;;;;;;;5.68;5.18;;;33.70;96.80;37.90;97091.00;;;;4990074;28;20277;-88
2023/07/18 12:06:41;;;;;;;4.85;4.47;;;34.10;96.60;38.00;97083.00;;;;4989910;28;20207;-88
2023/07/18 12:09:31;;;;;;;8.50;5.43;;;34.60;95.50;38.90;97083.00;;;;4992461;28;20222;-88
2023/07/18 12:12:23;;;;;;;6.72;5.10;;;34.90;95.40;35.70;97083.00;;;;4987874;28;20226;-87
2023/07/18 12:15:13;;;;;;;6.00;5.15;;;34.60;92.90;37.40;97141.00;;;;4989845;28;20252;-87
2023/07/18 12:18:02;;;;;;;5.38;4.88;;;34.50;93.80;33.80;97146.00;;;;4991503;28;20198;-87
2023/07/18 12:20:52;;;;;;;5.75;5.15;;;33.30;93.10;34.60;97131.00;;;;4993924;28;20199;-86
2023/07/18 12:23:42;;;;;;;5.70;5.20;;;32.80;94.70;35.20;97069.00;;;;4997250;28;20249;-87
2023/07/18 12:26:33;;;;;;;5.57;5.00;;;32.60;95.70;34.30;97074.00;;;;4996388;28;20242;-87
2023/07/18 12:29:22;;;;;;;6.43;5.80;;;32.60;96.30;34.90;97128.00;;;;4995418;28;20324;-87
2023/07/18 12:32:11;;;;;;;6.78;5.85;;;32.50;95.30;33.70;97057.00;;;;4989308;28;20230;-87
2023/07/18 12:35:03;;;;;;;7.28;4.97;;;;;34.20;97062.00;;;;4993055;28;20202;-86
2023/07/18 12:37:54;;;;;;;7.95;5.43;;;;;33.70;97041.00;;;;4988013;28;20255;-87
2023/07/18 12:40:43;;;;;;;7.43;6.47;;;;;35.00;97080.00;;;;4986903;28;21400;-88
2023/07/18 12:43:34;;;;;;;6.13;5.53;;;;;35.80;97040.00;;;;4986970;28;20210;-88
2023/07/18 12:46:26;;;;;;;6.13;5.45;;;;;36.00;97094.00;;;;4990390;28;20341;-91
2023/07/18 12:49:16;;;;;;;5.60;5.10;;;;;34.50;97040.00;;;;4985945;28;20608;-89
2023/07/18 12:52:25;;;;;;;8.68;6.10;;;;;34.40;97042.00;;;;4988183;28;20222;-89
2023/07/18 12:55:14;;;;;;;5.50;5.10;;;;;33.40;97082.00;;;;4994988;28;20206;-86
2023/07/18 12:58:03;;;;;;;6.13;5.53;;;;;34.90;97042.00;;;;4989011;28;20204;-87
2023/07/18 13:00:54;;;;;;;6.15;5.65;;;;;36.30;97032.00;;;;4987673;28;20218;-87
2023/07/18 13:03:44;;;;;;;5.90;5.18;;;;;37.20;97071.00;;;;4991693;28;20213;-87
2023/07/18 13:06:33;;;;;;;6.18;5.57;;;33.40;95.70;38.00;97019.00;;;;4989880;28;20213;-89
2023/07/18 13:09:22;;;;;;;9.55;5.40;;;33.50;96.00;39.30;97026.00;;;;4995974;28;20292;-89
2023/07/18 13:12:12;;;;;;;5.57;5.07;;;34.40;95.10;38.00;97015.00;;;;4986164;28;20231;-88
2023/07/18 13:15:01;;;;;;;6.28;5.68;;;35.00;93.10;37.50;97016.00;;;;4990734;28;20205;-88
2023/07/18 13:17:51;;;;;;;5.88;5.32;;;35.00;92.00;37.80;97056.00;;;;4988617;28;20261;-89
2023/07/18 13:23:31;;;;;;;5.80;5.10;;;34.90;91.90;38.80;97003.00;;;;4967504;28;20293;-88
2023/07/18 13:26:22;;;;;;;6.05;5.45;;;35.20;91.50;35.90;97031.00;;;;4969787;28;20202;-89
2023/07/18 13:29:11;;;;;;;5.72;5.00;;;35.10;90.50;38.00;97031.00;;;;4971355;28;20230;-89
2023/07/18 13:32:01;;;;;;;5.40;4.88;;;35.00;91.50;36.30;97016.00;;;;4964624;28;20219;-88
2023/07/18 13:34:53;;;;;;;7.15;5.72;;;34.70;91.20;38.00;97033.00;;;;4971046;28;20210;-88
2023/07/18 13:37:42;;;;;;;6.13;5.60;;;34.70;92.10;35.80;96977.00;;;;4972776;28;20639;-85
2023/07/18 13:40:31;;;;;;;5.47;5.07;;;34.40;90.90;36.40;96981.00;;;;4973034;28;20492;-87
2023/07/18 13:43:20;;;;;;;5.82;5.10;;;34.00;91.50;37.10;96981.00;;;;4974289;28;20716;-86
2023/07/18 13:46:10;;;;;;;6.00;5.50;;;34.20;91.90;37.80;96986.00;;;;4971997;28;20203;-87
2023/07/18 13:49:00;;;;;;;5.13;4.72;;;34.50;91.80;38.90;96986.00;;;;4972055;28;20242;-89
2023/07/18 13:51:51;;;;;;;5.25;4.82;;;34.80;92.10;39.50;96984.00;;;;4970029;28;20265;-88
2023/07/18 13:54:41;;;;;;;9.23;5.88;;;35.30;91.40;35.60;97020.00;;;;4969816;28;20238;-87